createdAt,value
2022-11-24T00:01:23.460Z,36.80
2022-11-24T00:03:58.827Z,37.77
2022-11-24T00:06:26.915Z,35.13
2022-11-24T00:08:54.819Z,34.53
2022-11-24T00:11:28.903Z,40.20
2022-11-24T00:13:56.605Z,31.57
2022-11-24T00:16:26.635Z,32.80
2022-11-24T00:18:56.232Z,37.93
2022-11-24T00:21:24.478Z,31.50
2022-11-24T00:23:52.189Z,38.47
2022-11-24T00:26:23.915Z,29.23
2022-11-24T00:28:53.504Z,32.37
2022-11-24T00:31:24.708Z,29.33
2022-11-24T00:33:57.240Z,30.43
2022-11-24T00:36:27.243Z,29.87
2022-11-24T00:38:56.352Z,27.87
2022-11-24T00:41:25.391Z,29.63
2022-11-24T00:43:53.037Z,30.90
2022-11-24T00:46:20.953Z,27.83
2022-11-24T00:48:48.062Z,29.10
2022-11-24T00:51:17.575Z,26.10
2022-11-24T00:53:45.392Z,32.37
2022-11-24T00:56:13.494Z,33.27
2022-11-24T00:58:41.007Z,34.10
2022-11-24T01:01:15.231Z,34.67
2022-11-24T01:03:45.026Z,31.97
2022-11-24T01:06:16.381Z,30.30
2022-11-24T01:08:44.498Z,32.23
2022-11-24T01:11:50.454Z,30.37
2022-11-24T01:14:17.694Z,33.57
2022-11-24T01:16:44.665Z,26.23
2022-11-24T01:19:11.585Z,31.97
2022-11-24T01:21:38.541Z,36.67
2022-11-24T01:24:05.871Z,31.00
2022-11-24T01:26:32.820Z,38.87
2022-11-24T01:28:59.830Z,27.77
2022-11-24T01:31:27.951Z,37.30
2022-11-24T01:33:55.291Z,34.97
2022-11-24T01:36:22.474Z,34.33
2022-11-24T01:38:49.499Z,30.70
2022-11-24T01:41:22.590Z,31.30
2022-11-24T01:43:51.186Z,33.03
2022-11-24T01:46:34.246Z,35.13
2022-11-24T01:49:33.836Z,33.73
2022-11-24T01:52:24.791Z,35.03
2022-11-24T01:55:17.177Z,35.60
2022-11-24T01:58:06.347Z,35.77
2022-11-24T02:00:37.105Z,33.43
2022-11-24T02:03:04.186Z,34.87
2022-11-24T02:05:47.543Z,39.23
2022-11-24T02:08:33.639Z,37.40
2022-11-24T02:11:04.626Z,31.97
2022-11-24T02:13:37.181Z,36.53
2022-11-24T02:16:07.890Z,35.27
2022-11-24T02:18:35.011Z,36.80
2022-11-24T02:21:01.943Z,30.90
2022-11-24T02:24:11.232Z,36.60
2022-11-24T02:26:56.131Z,33.73
2022-11-24T02:29:23.139Z,39.20
2022-11-24T02:31:59.748Z,34.77
2022-11-24T02:34:26.796Z,33.73
2022-11-24T02:36:53.790Z,33.43
2022-11-24T02:39:20.767Z,31.00
2022-11-24T02:41:54.925Z,33.63
2022-11-24T02:44:25.564Z,26.53
2022-11-24T02:47:11.367Z,22.17
2022-11-24T02:49:39.015Z,26.07
2022-11-24T02:52:06.823Z,28.03
2022-11-24T02:54:34.177Z,23.37
2022-11-24T02:57:01.464Z,27.50
2022-11-24T02:59:28.584Z,22.03
2022-11-24T03:01:55.666Z,20.93
2022-11-24T03:04:22.654Z,25.47
2022-11-24T03:06:49.645Z,27.77
2022-11-24T03:09:16.642Z,24.43
2022-11-24T03:11:43.612Z,25.53
2022-11-24T03:14:10.645Z,23.43
2022-11-24T03:16:37.882Z,22.03
2022-11-24T03:19:05.162Z,22.57
2022-11-24T03:21:32.118Z,18.53
2022-11-24T03:23:59.046Z,22.53
2022-11-24T03:26:26.000Z,29.33
2022-11-24T03:28:57.265Z,21.23
2022-11-24T03:31:24.593Z,23.37
2022-11-24T03:33:51.947Z,22.07
2022-11-24T03:36:19.230Z,24.47
2022-11-24T03:38:46.471Z,24.87
2022-11-24T03:41:13.516Z,24.33
2022-11-24T03:43:43.788Z,27.17
2022-11-24T03:46:12.436Z,21.97
2022-11-24T03:48:39.649Z,20.63
2022-11-24T03:51:06.778Z,25.90
2022-11-24T03:53:34.377Z,21.20
2022-11-24T03:56:02.226Z,18.43
2022-11-24T03:58:29.870Z,24.60
2022-11-24T04:00:57.749Z,27.17
2022-11-24T04:03:25.438Z,26.40
2022-11-24T04:05:52.724Z,20.77
2022-11-24T04:08:20.053Z,17.83
2022-11-24T04:10:51.823Z,20.37
2022-11-24T04:13:23.103Z,15.80
2022-11-24T04:15:50.822Z,20.23
2022-11-24T04:18:18.294Z,23.60
2022-11-24T04:20:45.710Z,16.87
2022-11-24T04:23:12.674Z,21.63
2022-11-24T04:25:39.707Z,19.63
2022-11-24T04:28:09.181Z,20.90
2022-11-24T04:30:38.564Z,15.80
2022-11-24T04:33:05.484Z,18.90
2022-11-24T04:35:32.486Z,20.23
2022-11-24T04:38:03.092Z,18.73
2022-11-24T04:40:30.280Z,20.17
2022-11-24T04:42:57.572Z,20.07
2022-11-24T04:45:24.908Z,22.53
2022-11-24T04:47:52.050Z,18.83
2022-11-24T04:50:19.045Z,22.57
2022-11-24T04:52:46.030Z,18.20
2022-11-24T04:55:13.045Z,20.67
2022-11-24T04:57:40.150Z,16.37
2022-11-24T05:00:09.203Z,17.87
2022-11-24T05:02:36.947Z,19.80
2022-11-24T05:05:05.204Z,16.00
2022-11-24T05:07:34.718Z,19.50
2022-11-24T05:10:20.037Z,18.63
2022-11-24T05:12:59.328Z,18.83
2022-11-24T05:15:26.552Z,18.47
2022-11-24T05:17:53.767Z,19.50
2022-11-24T05:20:21.623Z,15.43
2022-11-24T05:22:48.557Z,22.40
2022-11-24T05:25:15.721Z,20.43
2022-11-24T05:27:42.617Z,22.70
2022-11-24T05:30:11.341Z,19.77
2022-11-24T05:32:38.207Z,18.73
2022-11-24T05:35:06.165Z,19.47
2022-11-24T05:37:33.111Z,17.13
2022-11-24T05:39:59.996Z,19.13
2022-11-24T05:42:46.663Z,18.57
2022-11-24T05:45:21.131Z,19.70
2022-11-24T05:47:49.833Z,19.23
2022-11-24T05:50:19.047Z,19.33
2022-11-24T05:52:45.952Z,25.07
2022-11-24T05:55:14.768Z,22.20
2022-11-24T05:57:42.677Z,17.97
2022-11-24T06:00:11.306Z,22.20
2022-11-24T06:02:41.296Z,26.70
2022-11-24T06:05:08.585Z,21.20
2022-11-24T06:07:35.774Z,18.07
2022-11-24T06:10:02.823Z,19.47
2022-11-24T06:12:29.695Z,20.47
2022-11-24T06:14:56.609Z,19.80
2022-11-24T06:17:23.497Z,18.10
2022-11-24T06:19:51.731Z,22.90
2022-11-24T06:22:19.341Z,19.63
2022-11-24T06:24:47.607Z,19.20
2022-11-24T06:27:14.827Z,19.40
2022-11-24T06:29:41.859Z,22.87
2022-11-24T06:32:09.432Z,17.37
2022-11-24T06:34:36.796Z,18.10
2022-11-24T06:37:03.910Z,17.27
2022-11-24T06:39:30.813Z,18.07
2022-11-24T06:41:57.751Z,20.67
2022-11-24T06:44:25.076Z,20.90
2022-11-24T06:46:51.991Z,22.77
2022-11-24T06:49:19.094Z,22.33
2022-11-24T06:51:45.998Z,20.57
2022-11-24T06:54:17.067Z,22.00
2022-11-24T06:56:44.072Z,22.57
2022-11-24T06:59:18.600Z,18.80
2022-11-24T07:01:45.811Z,21.00
2022-11-24T07:04:13.229Z,18.87
2022-11-24T07:06:41.366Z,18.43
2022-11-24T07:09:13.641Z,19.23
2022-11-24T07:11:41.477Z,18.17
2022-11-24T07:14:08.922Z,22.93
2022-11-24T07:16:36.263Z,14.07
2022-11-24T07:19:03.503Z,19.77
2022-11-24T07:21:30.886Z,21.83
2022-11-24T07:23:58.305Z,27.17
2022-11-24T07:26:26.011Z,20.13
2022-11-24T07:28:53.132Z,18.10
2022-11-24T07:31:24.901Z,24.33
2022-11-24T07:33:54.043Z,20.20
2022-11-24T07:36:22.237Z,20.63
2022-11-24T07:38:49.410Z,21.07
2022-11-24T07:41:19.646Z,23.17
2022-11-24T07:43:47.478Z,18.37
2022-11-24T07:46:17.271Z,26.43
2022-11-24T07:48:44.408Z,25.30
2022-11-24T07:51:11.641Z,19.83
2022-11-24T07:53:38.710Z,33.73
2022-11-24T07:56:06.888Z,18.50
2022-11-24T07:58:36.389Z,28.30
2022-11-24T08:01:17.840Z,26.23
2022-11-24T08:03:46.658Z,25.47
2022-11-24T08:06:38.549Z,25.77
2022-11-24T08:09:01.905Z,29.27
2022-11-24T08:11:31.387Z,31.03
2022-11-24T08:13:58.477Z,24.40
2022-11-24T08:16:25.439Z,29.27
2022-11-24T08:18:55.175Z,23.03
2022-11-24T08:21:23.602Z,21.53
2022-11-24T08:23:54.442Z,27.97
2022-11-24T08:26:21.455Z,24.63
2022-11-24T08:28:53.958Z,22.63
2022-11-24T08:31:21.008Z,23.43
2022-11-24T08:33:48.077Z,25.70
2022-11-24T08:36:18.418Z,27.90
2022-11-24T08:38:46.286Z,25.60
2022-11-24T08:41:16.449Z,24.53
2022-11-24T08:43:43.626Z,22.53
2022-11-24T08:46:17.054Z,26.30
2022-11-24T08:48:48.462Z,23.30
2022-11-24T08:51:19.280Z,25.03
2022-11-24T08:53:46.228Z,111.87
2022-11-24T08:56:13.756Z,23.13
2022-11-24T08:58:41.571Z,24.50
2022-11-24T09:01:13.420Z,25.13
2022-11-24T09:03:46.592Z,24.50
2022-11-24T09:06:19.995Z,23.67
2022-11-24T09:08:46.945Z,21.17
2022-11-24T09:11:17.192Z,20.47
2022-11-24T09:13:44.428Z,20.03
2022-11-24T09:16:15.319Z,23.83
2022-11-24T09:18:42.755Z,23.47
2022-11-24T09:21:19.503Z,24.40
2022-11-24T09:23:49.061Z,21.10
2022-11-24T09:26:21.018Z,25.60
2022-11-24T09:28:48.836Z,22.03
2022-11-24T09:31:17.882Z,25.30
2022-11-24T09:33:45.351Z,24.80
2022-11-24T09:36:12.836Z,22.23
2022-11-24T09:38:40.195Z,21.10
2022-11-24T09:41:46.371Z,25.33
2022-11-24T09:44:46.355Z,29.00
2022-11-24T09:47:39.364Z,27.87
2022-11-24T09:50:15.866Z,23.13
2022-11-24T09:53:03.743Z,216.77
2022-11-24T09:56:03.950Z,185.97
2022-11-24T09:59:00.581Z,262.67
2022-11-24T10:01:41.128Z,188.87
2022-11-24T10:04:18.904Z,214.40
2022-11-24T10:07:12.685Z,189.00
2022-11-24T10:10:04.221Z,172.53
2022-11-24T10:12:40.499Z,181.73
2022-11-24T10:15:36.975Z,188.57
2022-11-24T10:18:24.271Z,204.60
2022-11-24T10:21:18.383Z,219.03
2022-11-24T10:24:18.559Z,192.93
2022-11-24T10:27:16.235Z,173.17
2022-11-24T10:29:44.071Z,186.80
2022-11-24T10:32:41.296Z,237.80
2022-11-24T10:35:22.481Z,172.23
2022-11-24T10:38:31.802Z,247.77
2022-11-24T10:41:23.429Z,197.10
2022-11-24T10:43:52.368Z,175.47
2022-11-24T10:46:31.380Z,188.57
2022-11-24T10:49:04.991Z,170.13
2022-11-24T10:51:34.792Z,179.13
2022-11-24T10:54:12.601Z,182.47
2022-11-24T10:56:44.921Z,193.97
2022-11-24T10:59:24.682Z,201.77
2022-11-24T11:01:52.869Z,192.67
2022-11-24T11:04:32.849Z,193.00
2022-11-24T11:07:22.397Z,200.73
2022-11-24T11:09:49.857Z,186.17
2022-11-24T11:15:31.152Z,216.87
2022-11-24T11:18:01.098Z,182.87
2022-11-24T11:20:33.745Z,182.83
2022-11-24T11:23:14.497Z,180.97
2022-11-24T11:25:41.428Z,172.47
2022-11-24T11:28:31.613Z,188.60
2022-11-24T11:31:22.113Z,203.47
2022-11-24T11:34:15.853Z,179.33
2022-11-24T11:36:51.085Z,185.17
2022-11-24T11:39:30.572Z,177.37
2022-11-24T11:45:36.320Z,181.13
2022-11-24T11:48:03.250Z,191.40
2022-11-24T11:51:21.774Z,182.40
2022-11-24T11:53:49.487Z,186.10
2022-11-24T11:56:28.635Z,193.60
2022-11-24T11:59:35.652Z,193.97
2022-11-24T12:02:27.875Z,184.87
2022-11-24T12:05:05.771Z,171.03
2022-11-24T12:07:58.210Z,219.93
2022-11-24T12:11:02.960Z,216.43
2022-11-24T12:14:03.259Z,206.83
2022-11-24T12:16:35.539Z,211.33
2022-11-24T12:19:23.903Z,189.70
2022-11-24T12:21:55.574Z,186.10
2022-11-24T12:24:47.131Z,226.33
2022-11-24T12:27:52.904Z,184.53
2022-11-24T12:30:22.011Z,200.40
2022-11-24T12:33:29.352Z,203.07
2022-11-24T12:36:15.669Z,217.50
2022-11-24T12:38:56.280Z,236.40
2022-11-24T12:41:42.204Z,228.20
2022-11-24T12:45:06.142Z,236.57
2022-11-24T12:48:14.091Z,216.60
2022-11-24T12:50:44.015Z,217.83
2022-11-24T12:53:14.203Z,193.97
2022-11-24T12:55:43.056Z,198.73
2022-11-24T12:58:51.791Z,228.13
2022-11-24T13:01:21.781Z,233.73
2022-11-24T13:04:15.121Z,188.37
2022-11-24T13:07:10.177Z,237.23
2022-11-24T13:09:37.596Z,402.83
2022-11-24T13:12:14.701Z,314.33
2022-11-24T13:14:47.219Z,204.17
2022-11-24T13:17:43.492Z,177.63
2022-11-24T13:20:20.026Z,202.87
2022-11-24T13:23:23.096Z,211.83
2022-11-24T13:26:29.016Z,221.53
2022-11-24T13:29:23.748Z,199.00
2022-11-24T13:31:52.082Z,208.73
2022-11-24T13:34:40.946Z,221.90
2022-11-24T13:37:34.649Z,247.90
2022-11-24T13:40:22.539Z,285.80
2022-11-24T13:42:58.052Z,287.17
2022-11-24T13:45:40.948Z,329.70
2022-11-24T13:48:20.772Z,298.10
2022-11-24T13:50:51.450Z,211.60
2022-11-24T13:53:40.876Z,226.67
2022-11-24T13:56:23.626Z,249.20
2022-11-24T13:59:00.329Z,236.60
2022-11-24T14:01:36.806Z,223.30
2022-11-24T14:04:35.268Z,279.23
2022-11-24T14:07:11.694Z,210.10
2022-11-24T14:09:48.940Z,253.10
2022-11-24T14:12:26.783Z,225.27
2022-11-24T14:15:19.969Z,189.50
2022-11-24T14:17:46.858Z,193.23
2022-11-24T14:20:24.610Z,232.10
2022-11-24T14:22:51.968Z,222.03
2022-11-24T14:25:30.236Z,187.87
2022-11-24T14:27:57.263Z,196.27
2022-11-24T14:30:25.954Z,262.63
2022-11-24T14:33:01.468Z,203.83
2022-11-24T14:35:34.939Z,171.73
2022-11-24T14:38:04.780Z,184.53
2022-11-24T14:40:45.082Z,230.87
2022-11-24T14:43:32.620Z,190.17
2022-11-24T14:46:01.608Z,212.57
2022-11-24T14:48:46.964Z,200.67
2022-11-24T14:51:37.692Z,235.23
2022-11-24T14:54:18.206Z,184.37
2022-11-24T14:57:06.398Z,205.40
2022-11-24T14:59:36.473Z,241.33
2022-11-24T15:02:44.671Z,189.10
2022-11-24T15:05:11.828Z,210.97
2022-11-24T15:07:41.272Z,212.47
2022-11-24T15:10:34.747Z,232.20
2022-11-24T15:13:06.125Z,203.80
2022-11-24T15:15:36.880Z,292.53
2022-11-24T15:18:05.916Z,280.73
2022-11-24T15:20:36.915Z,267.23
2022-11-24T15:23:29.571Z,201.83
2022-11-24T15:25:58.049Z,210.90
2022-11-24T15:28:28.097Z,192.33
2022-11-24T15:30:59.457Z,228.93
2022-11-24T15:33:27.029Z,232.50
2022-11-24T15:35:54.214Z,230.23
2022-11-24T15:38:22.262Z,277.57
2022-11-24T15:40:52.971Z,215.70
2022-11-24T15:43:40.161Z,251.20
2022-11-24T15:46:08.999Z,206.27
2022-11-24T15:48:36.151Z,220.87
2022-11-24T15:51:07.007Z,222.90
2022-11-24T15:53:44.671Z,271.77
2022-11-24T15:56:29.264Z,203.97
2022-11-24T15:58:56.519Z,193.63
2022-11-24T16:01:29.579Z,175.23
2022-11-24T16:03:56.490Z,171.23
2022-11-24T16:06:25.136Z,179.43
2022-11-24T16:08:53.910Z,199.40
2022-11-24T16:11:21.899Z,220.80
2022-11-24T16:13:52.840Z,168.90
2022-11-24T16:16:22.627Z,174.10
2022-11-24T16:18:49.615Z,180.07
2022-11-24T16:21:17.665Z,223.27
2022-11-24T16:23:45.614Z,246.83
2022-11-24T16:26:12.500Z,234.83
2022-11-24T16:28:39.411Z,243.37
2022-11-24T16:31:06.485Z,190.37
2022-11-24T16:33:33.408Z,247.77
2022-11-24T16:36:00.282Z,331.97
2022-11-24T16:38:27.166Z,252.53
2022-11-24T16:40:56.440Z,246.03
2022-11-24T16:43:24.571Z,333.03
2022-11-24T16:46:18.295Z,279.50
2022-11-24T16:48:47.667Z,331.20
2022-11-24T16:51:15.688Z,205.03
2022-11-24T16:53:43.230Z,195.83
2022-11-24T16:56:10.160Z,207.53
2022-11-24T16:58:39.739Z,206.30
2022-11-24T17:01:09.037Z,196.63
2022-11-24T17:03:39.794Z,200.10
2022-11-24T17:06:10.413Z,220.43
2022-11-24T17:08:39.725Z,201.93
2022-11-24T17:11:10.081Z,197.07
2022-11-24T17:13:37.625Z,227.50
2022-11-24T17:16:14.110Z,231.47
2022-11-24T17:18:41.748Z,197.30
2022-11-24T17:21:13.958Z,185.37
2022-11-24T17:23:40.954Z,206.63
2022-11-24T17:26:14.517Z,219.27
2022-11-24T17:28:42.462Z,223.27
2022-11-24T17:31:23.650Z,270.03
2022-11-24T17:33:52.177Z,228.23
2022-11-24T17:36:19.864Z,186.57
2022-11-24T17:38:49.037Z,239.17
2022-11-24T17:41:16.793Z,276.70
2022-11-24T17:43:43.704Z,202.83
2022-11-24T17:46:10.990Z,219.00
2022-11-24T17:48:37.939Z,197.97
2022-11-24T17:51:14.168Z,236.83
2022-11-24T17:53:47.076Z,225.63
2022-11-24T17:56:23.719Z,216.97
2022-11-24T17:58:59.190Z,246.47
2022-11-24T18:01:28.654Z,256.13
2022-11-24T18:03:55.840Z,204.90
2022-11-24T18:06:25.382Z,206.57
2022-11-24T18:08:54.153Z,200.00
2022-11-24T18:11:30.463Z,194.37
2022-11-24T18:14:02.531Z,209.23
2022-11-24T18:16:32.074Z,204.03
2022-11-24T18:19:10.421Z,191.67
2022-11-24T18:21:43.705Z,219.90
2022-11-24T18:24:12.093Z,219.80
2022-11-24T18:26:43.165Z,225.27
2022-11-24T18:29:11.429Z,217.70
2022-11-24T18:31:38.802Z,217.93
2022-11-24T18:34:06.618Z,236.83
2022-11-24T18:36:34.910Z,215.93
2022-11-24T18:39:07.910Z,236.10
2022-11-24T18:41:35.308Z,253.97
2022-11-24T18:44:03.140Z,240.33
2022-11-24T18:46:30.084Z,230.17
2022-11-24T18:48:57.215Z,262.13
2022-11-24T18:51:24.200Z,229.27
2022-11-24T18:53:54.625Z,239.03
2022-11-24T18:56:21.877Z,224.87
2022-11-24T18:58:52.665Z,283.13
2022-11-24T19:01:28.323Z,262.43
2022-11-24T19:03:58.196Z,279.37
2022-11-24T19:06:32.223Z,254.10
2022-11-24T19:09:08.596Z,253.43
2022-11-24T19:11:39.310Z,298.57
2022-11-24T19:14:08.187Z,287.40
2022-11-24T19:16:35.916Z,289.93
2022-11-24T19:19:04.104Z,230.93
2022-11-24T19:21:33.394Z,249.33
2022-11-24T19:24:04.878Z,262.30
2022-11-24T19:26:34.886Z,221.10
2022-11-24T19:29:02.683Z,319.97
2022-11-24T19:31:30.112Z,383.87
2022-11-24T19:33:58.703Z,392.03
2022-11-24T19:36:26.317Z,336.00
2022-11-24T19:38:56.004Z,345.57
2022-11-24T19:41:27.256Z,301.37
2022-11-24T19:43:54.821Z,284.03
2022-11-24T19:46:26.243Z,273.97
2022-11-24T19:48:56.119Z,282.80
2022-11-24T19:51:32.927Z,222.53
2022-11-24T19:54:01.131Z,260.63
2022-11-24T19:56:30.872Z,289.70
2022-11-24T19:58:58.248Z,218.17
2022-11-24T20:01:31.653Z,225.90
2022-11-24T20:04:06.249Z,217.60
2022-11-24T20:06:37.754Z,215.87
2022-11-24T20:09:08.906Z,241.83
2022-11-24T20:11:36.520Z,246.73
2022-11-24T20:14:04.312Z,302.27
2022-11-24T20:16:34.158Z,244.23
2022-11-24T20:19:08.530Z,224.10
2022-11-24T20:21:37.407Z,283.33
2022-11-24T20:24:14.583Z,208.73
2022-11-24T20:26:56.416Z,219.03
2022-11-24T20:29:23.406Z,206.60
2022-11-24T20:31:53.703Z,210.23
2022-11-24T20:34:21.756Z,209.73
2022-11-24T20:36:49.105Z,220.00
2022-11-24T20:39:26.416Z,255.13
2022-11-24T20:41:54.874Z,211.67
2022-11-24T20:44:23.153Z,200.87
2022-11-24T20:46:50.105Z,229.90
2022-11-24T20:49:19.685Z,244.20
2022-11-24T20:51:49.237Z,249.80
2022-11-24T20:54:18.239Z,263.17
2022-11-24T20:56:46.889Z,268.83
2022-11-24T20:59:18.047Z,212.50
2022-11-24T21:01:47.019Z,249.57
2022-11-24T21:04:23.607Z,255.17
2022-11-24T21:06:50.865Z,219.57
2022-11-24T21:09:18.458Z,229.57
2022-11-24T21:11:45.649Z,210.33
2022-11-24T21:14:12.757Z,198.17
2022-11-24T21:16:41.388Z,248.47
2022-11-24T21:19:12.819Z,214.00
2022-11-24T21:21:42.452Z,212.43
2022-11-24T21:24:15.559Z,218.90
2022-11-24T21:26:44.093Z,256.63
2022-11-24T21:29:13.093Z,214.80
2022-11-24T21:31:40.178Z,265.97
2022-11-24T21:34:08.264Z,186.70
2022-11-24T21:36:36.113Z,188.63
2022-11-24T21:39:04.094Z,217.70
2022-11-24T21:41:33.662Z,218.67
2022-11-24T21:44:00.636Z,249.93
2022-11-24T21:46:29.529Z,254.63
2022-11-24T21:48:56.414Z,294.90
2022-11-24T21:51:23.369Z,237.83
2022-11-24T21:53:50.318Z,222.13
2022-11-24T21:56:20.027Z,242.43
2022-11-24T21:58:56.136Z,229.60
2022-11-24T22:01:27.369Z,226.87
2022-11-24T22:03:54.779Z,232.67
2022-11-24T22:06:21.754Z,227.17
2022-11-24T22:08:49.188Z,243.07
2022-11-24T22:11:21.940Z,232.60
2022-11-24T22:13:50.516Z,204.27
2022-11-24T22:16:23.384Z,243.30
2022-11-24T22:18:51.526Z,252.50
2022-11-24T22:21:30.053Z,280.70
2022-11-24T22:23:57.276Z,231.17
2022-11-24T22:26:25.099Z,240.03
2022-11-24T22:28:53.357Z,243.80
2022-11-24T22:31:29.885Z,233.90
2022-11-24T22:33:58.332Z,219.00
2022-11-24T22:36:28.383Z,265.60
2022-11-24T22:38:58.245Z,237.17
2022-11-24T22:41:26.036Z,204.70
2022-11-24T22:43:53.808Z,216.60
2022-11-24T22:46:24.692Z,243.57
2022-11-24T22:48:53.596Z,239.17
2022-11-24T22:51:28.866Z,223.87
2022-11-24T22:53:58.586Z,233.23
2022-11-24T22:56:27.996Z,254.30
2022-11-24T22:58:54.966Z,247.80
2022-11-24T23:01:24.438Z,213.13
2022-11-24T23:03:54.474Z,204.60
2022-11-24T23:06:27.513Z,273.53
2022-11-24T23:08:55.292Z,231.10
2022-11-24T23:11:38.057Z,218.60
2022-11-24T23:14:08.624Z,223.77
2022-11-24T23:16:35.659Z,220.70
2022-11-24T23:19:02.873Z,240.17
2022-11-24T23:21:33.212Z,213.63
2022-11-24T23:24:02.380Z,207.63
2022-11-24T23:26:34.394Z,238.33
2022-11-24T23:29:01.548Z,241.67
2022-11-24T23:31:29.177Z,274.80
2022-11-24T23:34:01.418Z,218.60
2022-11-24T23:36:29.290Z,277.13
2022-11-24T23:38:56.397Z,205.60
2022-11-24T23:41:25.805Z,220.57
2022-11-24T23:43:52.886Z,285.07
2022-11-24T23:46:25.636Z,211.90
2022-11-24T23:48:54.173Z,216.57
2022-11-24T23:51:30.242Z,199.57
2022-11-24T23:53:58.182Z,230.43
2022-11-24T23:56:32.755Z,233.60
2022-11-24T23:59:04.540Z,198.33
